sensor_id;sensor_type;location;lat;lon;timestamp;temperature;humidity
65419;DHT22;52027;50.658;14.004;2022-12-20T00:00:53;20.56;31.64
65419;DHT22;52027;50.658;14.004;2022-12-20T00:03:19;20.53;31.66
65419;DHT22;52027;50.658;14.004;2022-12-20T00:05:45;20.56;31.60
65419;DHT22;52027;50.658;14.004;2022-12-20T00:08:11;20.57;31.57
65419;DHT22;52027;50.658;14.004;2022-12-20T00:10:38;20.53;31.60
65419;DHT22;52027;50.658;14.004;2022-12-20T00:13:04;20.53;31.63
65419;DHT22;52027;50.658;14.004;2022-12-20T00:15:30;20.53;31.57
65419;DHT22;52027;50.658;14.004;2022-12-20T00:17:56;20.56;31.56
65419;DHT22;52027;50.658;14.004;2022-12-20T00:20:21;20.53;31.59
65419;DHT22;52027;50.658;14.004;2022-12-20T00:22:47;20.53;31.58
65419;DHT22;52027;50.658;14.004;2022-12-20T00:25:12;20.55;31.60
65419;DHT22;52027;50.658;14.004;2022-12-20T00:27:37;20.53;31.56
65419;DHT22;52027;50.658;14.004;2022-12-20T00:30:03;20.53;31.55
65419;DHT22;52027;50.658;14.004;2022-12-20T00:32:29;20.53;31.57
65419;DHT22;52027;50.658;14.004;2022-12-20T00:34:54;20.55;31.52
65419;DHT22;52027;50.658;14.004;2022-12-20T00:37:19;20.53;31.52
65419;DHT22;52027;50.658;14.004;2022-12-20T00:39:45;20.55;31.60
65419;DHT22;52027;50.658;14.004;2022-12-20T00:42:10;20.56;31.52
65419;DHT22;52027;50.658;14.004;2022-12-20T00:44:36;20.55;31.52
65419;DHT22;52027;50.658;14.004;2022-12-20T00:47:01;20.57;31.55
65419;DHT22;52027;50.658;14.004;2022-12-20T00:49:26;20.57;31.54
65419;DHT22;52027;50.658;14.004;2022-12-20T00:51:51;20.60;31.48
65419;DHT22;52027;50.658;14.004;2022-12-20T00:54:17;20.60;31.48
65419;DHT22;52027;50.658;14.004;2022-12-20T00:56:42;20.57;31.49
65419;DHT22;52027;50.658;14.004;2022-12-20T00:59:07;20.62;31.49
65419;DHT22;52027;50.658;14.004;2022-12-20T01:01:33;20.65;31.50
65419;DHT22;52027;50.658;14.004;2022-12-20T01:03:59;20.63;31.46
65419;DHT22;52027;50.658;14.004;2022-12-20T01:06:28;20.63;31.44
65419;DHT22;52027;50.658;14.004;2022-12-20T01:08:54;20.65;31.38
65419;DHT22;52027;50.658;14.004;2022-12-20T01:11:28;20.66;31.40
65419;DHT22;52027;50.658;14.004;2022-12-20T01:13:56;20.66;31.42
65419;DHT22;52027;50.658;14.004;2022-12-20T01:16:28;20.69;31.32
65419;DHT22;52027;50.658;14.004;2022-12-20T01:18:54;20.67;31.37
65419;DHT22;52027;50.658;14.004;2022-12-20T01:21:21;20.72;31.31
65419;DHT22;52027;50.658;14.004;2022-12-20T01:23:47;20.69;31.33
65419;DHT22;52027;50.658;14.004;2022-12-20T01:26:15;20.69;31.33
65419;DHT22;52027;50.658;14.004;2022-12-20T01:28:42;20.72;31.33
65419;DHT22;52027;50.658;14.004;2022-12-20T01:31:10;20.72;31.31
65419;DHT22;52027;50.658;14.004;2022-12-20T01:33:36;20.75;31.31
65419;DHT22;52027;50.658;14.004;2022-12-20T01:36:04;20.73;31.28
65419;DHT22;52027;50.658;14.004;2022-12-20T01:38:30;20.75;31.32
65419;DHT22;52027;50.658;14.004;2022-12-20T01:40:56;20.75;31.27
65419;DHT22;52027;50.658;14.004;2022-12-20T01:43:22;20.76;31.30
65419;DHT22;52027;50.658;14.004;2022-12-20T01:45:49;20.75;31.27
65419;DHT22;52027;50.658;14.004;2022-12-20T01:48:18;20.76;31.27
65419;DHT22;52027;50.658;14.004;2022-12-20T01:50:46;20.75;31.24
65419;DHT22;52027;50.658;14.004;2022-12-20T01:53:13;20.79;31.22
65419;DHT22;52027;50.658;14.004;2022-12-20T01:55:39;20.80;31.21
65419;DHT22;52027;50.658;14.004;2022-12-20T01:58:08;20.76;31.27
65419;DHT22;52027;50.658;14.004;2022-12-20T02:00:34;20.76;31.26
65419;DHT22;52027;50.658;14.004;2022-12-20T02:03:04;20.77;31.16
65419;DHT22;52027;50.658;14.004;2022-12-20T02:05:35;20.76;31.21
65419;DHT22;52027;50.658;14.004;2022-12-20T02:08:01;20.79;31.22
65419;DHT22;52027;50.658;14.004;2022-12-20T02:13:13;20.80;31.23
65419;DHT22;52027;50.658;14.004;2022-12-20T02:15:56;20.79;31.15
65419;DHT22;52027;50.658;14.004;2022-12-20T02:18:28;20.79;31.19
65419;DHT22;52027;50.658;14.004;2022-12-20T02:31:59;20.81;31.16
65419;DHT22;52027;50.658;14.004;2022-12-20T02:34:25;20.81;31.15
65419;DHT22;52027;50.658;14.004;2022-12-20T02:36:51;20.80;31.13
65419;DHT22;52027;50.658;14.004;2022-12-20T02:39:16;20.79;31.16
65419;DHT22;52027;50.658;14.004;2022-12-20T02:41:52;20.81;31.16
65419;DHT22;52027;50.658;14.004;2022-12-20T02:44:20;20.77;31.21
65419;DHT22;52027;50.658;14.004;2022-12-20T02:47:11;20.79;31.17
65419;DHT22;52027;50.658;14.004;2022-12-20T02:49:38;20.79;31.15
65419;DHT22;52027;50.658;14.004;2022-12-20T02:52:06;20.80;31.15
65419;DHT22;52027;50.658;14.004;2022-12-20T02:54:33;20.81;31.16
65419;DHT22;52027;50.658;14.004;2022-12-20T02:57:04;20.83;31.13
65419;DHT22;52027;50.658;14.004;2022-12-20T02:59:39;20.81;31.12
65419;DHT22;52027;50.658;14.004;2022-12-20T03:02:07;20.83;31.17
65419;DHT22;52027;50.658;14.004;2022-12-20T03:04:35;20.83;31.13
65419;DHT22;52027;50.658;14.004;2022-12-20T03:07:05;20.84;31.12
65419;DHT22;52027;50.658;14.004;2022-12-20T03:09:33;20.83;31.09
65419;DHT22;52027;50.658;14.004;2022-12-20T03:11:59;20.83;31.15
65419;DHT22;52027;50.658;14.004;2022-12-20T03:14:24;20.81;31.13
65419;DHT22;52027;50.658;14.004;2022-12-20T03:16:51;20.83;31.09
65419;DHT22;52027;50.658;14.004;2022-12-20T03:19:16;20.83;31.12
65419;DHT22;52027;50.658;14.004;2022-12-20T03:21:41;20.84;31.13
65419;DHT22;52027;50.658;14.004;2022-12-20T03:24:07;20.81;31.15
65419;DHT22;52027;50.658;14.004;2022-12-20T03:26:32;20.84;31.21
65419;DHT22;52027;50.658;14.004;2022-12-20T03:28:58;20.83;31.12
65419;DHT22;52027;50.658;14.004;2022-12-20T03:31:23;20.80;31.16
65419;DHT22;52027;50.658;14.004;2022-12-20T03:33:49;20.83;31.15
65419;DHT22;52027;50.658;14.004;2022-12-20T03:36:14;20.81;31.18
65419;DHT22;52027;50.658;14.004;2022-12-20T03:38:40;20.81;31.15
65419;DHT22;52027;50.658;14.004;2022-12-20T03:41:05;20.81;31.15
65419;DHT22;52027;50.658;14.004;2022-12-20T03:43:30;20.83;31.10
65419;DHT22;52027;50.658;14.004;2022-12-20T03:45:56;20.81;31.10
65419;DHT22;52027;50.658;14.004;2022-12-20T03:48:21;20.81;31.13
65419;DHT22;52027;50.658;14.004;2022-12-20T03:50:46;20.83;31.09
65419;DHT22;52027;50.658;14.004;2022-12-20T03:53:12;20.83;31.12
65419;DHT22;52027;50.658;14.004;2022-12-20T03:55:37;20.81;31.13
65419;DHT22;52027;50.658;14.004;2022-12-20T03:58:02;20.81;31.12
65419;DHT22;52027;50.658;14.004;2022-12-20T04:00:28;20.81;31.12
65419;DHT22;52027;50.658;14.004;2022-12-20T04:02:53;20.83;31.12
65419;DHT22;52027;50.658;14.004;2022-12-20T04:05:18;20.81;31.09
65419;DHT22;52027;50.658;14.004;2022-12-20T04:07:44;20.81;31.12
65419;DHT22;52027;50.658;14.004;2022-12-20T04:10:10;20.83;31.12
65419;DHT22;52027;50.658;14.004;2022-12-20T04:12:35;20.80;31.15
65419;DHT22;52027;50.658;14.004;2022-12-20T04:15:00;20.80;31.15
65419;DHT22;52027;50.658;14.004;2022-12-20T04:17:26;20.81;31.12
65419;DHT22;52027;50.658;14.004;2022-12-20T04:19:51;20.81;31.16
65419;DHT22;52027;50.658;14.004;2022-12-20T04:22:16;20.81;31.13
65419;DHT22;52027;50.658;14.004;2022-12-20T04:24:42;20.81;31.15
65419;DHT22;52027;50.658;14.004;2022-12-20T04:27:07;20.80;31.15
65419;DHT22;52027;50.658;14.004;2022-12-20T04:29:32;20.80;31.11
65419;DHT22;52027;50.658;14.004;2022-12-20T04:31:58;20.81;31.11
65419;DHT22;52027;50.658;14.004;2022-12-20T04:34:23;20.77;31.15
65419;DHT22;52027;50.658;14.004;2022-12-20T04:36:48;20.79;31.17
65419;DHT22;52027;50.658;14.004;2022-12-20T04:39:14;20.76;31.12
65419;DHT22;52027;50.658;14.004;2022-12-20T04:41:39;20.73;31.05
65419;DHT22;52027;50.658;14.004;2022-12-20T04:44:04;20.73;31.03
65419;DHT22;52027;50.658;14.004;2022-12-20T04:46:30;20.70;30.98
65419;DHT22;52027;50.658;14.004;2022-12-20T04:48:55;20.67;30.95
65419;DHT22;52027;50.658;14.004;2022-12-20T04:51:20;20.67;31.01
65419;DHT22;52027;50.658;14.004;2022-12-20T04:53:46;20.65;30.98
65419;DHT22;52027;50.658;14.004;2022-12-20T04:56:12;20.62;31.04
65419;DHT22;52027;50.658;14.004;2022-12-20T04:58:37;20.63;31.04
65419;DHT22;52027;50.658;14.004;2022-12-20T05:01:03;20.60;31.07
65419;DHT22;52027;50.658;14.004;2022-12-20T05:03:28;20.60;31.05
65419;DHT22;52027;50.658;14.004;2022-12-20T05:05:53;20.59;31.08
65419;DHT22;52027;50.658;14.004;2022-12-20T05:08:19;20.57;31.05
65419;DHT22;52027;50.658;14.004;2022-12-20T05:10:44;20.60;31.08
65419;DHT22;52027;50.658;14.004;2022-12-20T05:13:10;20.56;31.08
65419;DHT22;52027;50.658;14.004;2022-12-20T05:15:35;20.57;31.11
65419;DHT22;52027;50.658;14.004;2022-12-20T05:18:01;20.55;31.06
65419;DHT22;52027;50.658;14.004;2022-12-20T05:20:28;20.55;31.09
65419;DHT22;52027;50.658;14.004;2022-12-20T05:22:54;20.55;31.10
65419;DHT22;52027;50.658;14.004;2022-12-20T05:25:41;20.53;31.11
65419;DHT22;52027;50.658;14.004;2022-12-20T05:28:27;20.55;31.11
65419;DHT22;52027;50.658;14.004;2022-12-20T05:30:52;20.53;31.17
65419;DHT22;52027;50.658;14.004;2022-12-20T05:33:22;20.52;31.12
65419;DHT22;52027;50.658;14.004;2022-12-20T05:35:48;20.55;31.22
65419;DHT22;52027;50.658;14.004;2022-12-20T05:38:13;20.55;31.25
65419;DHT22;52027;50.658;14.004;2022-12-20T05:40:39;20.53;31.16
65419;DHT22;52027;50.658;14.004;2022-12-20T05:43:05;20.56;31.19
65419;DHT22;52027;50.658;14.004;2022-12-20T05:45:31;20.56;31.12
65419;DHT22;52027;50.658;14.004;2022-12-20T05:47:56;20.55;31.17
65419;DHT22;52027;50.658;14.004;2022-12-20T05:50:22;20.59;31.14
65419;DHT22;52027;50.658;14.004;2022-12-20T05:52:47;20.57;31.21
65419;DHT22;52027;50.658;14.004;2022-12-20T05:55:13;20.59;31.19
65419;DHT22;52027;50.658;14.004;2022-12-20T05:57:38;20.57;31.19
65419;DHT22;52027;50.658;14.004;2022-12-20T06:00:05;20.62;31.30
65419;DHT22;52027;50.658;14.004;2022-12-20T06:02:34;20.57;31.27
65419;DHT22;52027;50.658;14.004;2022-12-20T06:05:06;20.56;31.27
65419;DHT22;52027;50.658;14.004;2022-12-20T06:07:31;20.56;31.36
65419;DHT22;52027;50.658;14.004;2022-12-20T06:09:57;20.55;31.47
65419;DHT22;52027;50.658;14.004;2022-12-20T06:12:23;20.53;31.72
65419;DHT22;52027;50.658;14.004;2022-12-20T06:14:49;20.53;32.04
65419;DHT22;52027;50.658;14.004;2022-12-20T06:17:14;20.52;32.16
65419;DHT22;52027;50.658;14.004;2022-12-20T06:19:40;20.50;32.16
65419;DHT22;52027;50.658;14.004;2022-12-20T06:22:06;20.52;32.29
65419;DHT22;52027;50.658;14.004;2022-12-20T06:24:33;20.53;32.35
65419;DHT22;52027;50.658;14.004;2022-12-20T06:26:58;20.52;32.36
65419;DHT22;52027;50.658;14.004;2022-12-20T06:29:23;20.50;32.29
65419;DHT22;52027;50.658;14.004;2022-12-20T06:31:49;20.52;32.27
65419;DHT22;52027;50.658;14.004;2022-12-20T06:34:14;20.53;32.38
65419;DHT22;52027;50.658;14.004;2022-12-20T06:36:40;20.55;32.71
65419;DHT22;52027;50.658;14.004;2022-12-20T06:39:05;20.59;32.78
65419;DHT22;52027;50.658;14.004;2022-12-20T06:41:32;20.57;32.62
65419;DHT22;52027;50.658;14.004;2022-12-20T06:43:58;20.62;32.50
65419;DHT22;52027;50.658;14.004;2022-12-20T06:46:23;20.57;32.45
65419;DHT22;52027;50.658;14.004;2022-12-20T06:48:49;20.59;32.53
65419;DHT22;52027;50.658;14.004;2022-12-20T06:51:14;20.59;32.83
65419;DHT22;52027;50.658;14.004;2022-12-20T06:53:41;20.57;32.91
65419;DHT22;52027;50.658;14.004;2022-12-20T06:56:08;20.60;33.00
65419;DHT22;52027;50.658;14.004;2022-12-20T06:58:33;20.59;33.00
65419;DHT22;52027;50.658;14.004;2022-12-20T07:00:59;20.65;33.04
65419;DHT22;52027;50.658;14.004;2022-12-20T07:03:24;20.62;33.05
65419;DHT22;52027;50.658;14.004;2022-12-20T07:05:53;20.63;33.22
65419;DHT22;52027;50.658;14.004;2022-12-20T07:08:20;20.65;33.23
65419;DHT22;52027;50.658;14.004;2022-12-20T07:10:46;20.66;33.24
65419;DHT22;52027;50.658;14.004;2022-12-20T07:13:11;20.63;33.26
65419;DHT22;52027;50.658;14.004;2022-12-20T07:15:37;20.69;33.17
65419;DHT22;52027;50.658;14.004;2022-12-20T07:18:02;20.69;33.21
65419;DHT22;52027;50.658;14.004;2022-12-20T07:20:29;20.72;33.28
65419;DHT22;52027;50.658;14.004;2022-12-20T07:22:54;20.75;33.27
65419;DHT22;52027;50.658;14.004;2022-12-20T07:25:20;20.76;33.20
65419;DHT22;52027;50.658;14.004;2022-12-20T07:27:47;20.79;33.28
65419;DHT22;52027;50.658;14.004;2022-12-20T07:30:14;20.77;33.39
65419;DHT22;52027;50.658;14.004;2022-12-20T07:32:39;20.80;33.45
65419;DHT22;52027;50.658;14.004;2022-12-20T07:35:05;20.81;33.48
65419;DHT22;52027;50.658;14.004;2022-12-20T07:37:30;20.81;33.44
65419;DHT22;52027;50.658;14.004;2022-12-20T07:39:56;20.86;33.48
65419;DHT22;52027;50.658;14.004;2022-12-20T07:42:21;20.86;33.51
65419;DHT22;52027;50.658;14.004;2022-12-20T07:44:46;20.88;33.38
65419;DHT22;52027;50.658;14.004;2022-12-20T07:47:12;20.88;33.37
65419;DHT22;52027;50.658;14.004;2022-12-20T07:49:37;20.90;33.38
65419;DHT22;52027;50.658;14.004;2022-12-20T07:52:03;20.93;33.56
65419;DHT22;52027;50.658;14.004;2022-12-20T07:54:32;20.94;33.55
65419;DHT22;52027;50.658;14.004;2022-12-20T07:57:09;20.93;33.34
65419;DHT22;52027;50.658;14.004;2022-12-20T07:59:39;20.94;33.43
65419;DHT22;52027;50.658;14.004;2022-12-20T08:02:08;20.93;33.40
65419;DHT22;52027;50.658;14.004;2022-12-20T08:04:37;20.94;33.45
65419;DHT22;52027;50.658;14.004;2022-12-20T08:07:02;20.94;33.59
65419;DHT22;52027;50.658;14.004;2022-12-20T08:09:30;20.96;33.52
65419;DHT22;52027;50.658;14.004;2022-12-20T08:11:59;20.97;33.47
65419;DHT22;52027;50.658;14.004;2022-12-20T08:14:25;20.96;33.46
65419;DHT22;52027;50.658;14.004;2022-12-20T08:16:50;21.00;33.40
65419;DHT22;52027;50.658;14.004;2022-12-20T08:19:16;21.00;33.45
65419;DHT22;52027;50.658;14.004;2022-12-20T08:21:41;21.00;33.52
65419;DHT22;52027;50.658;14.004;2022-12-20T08:24:06;21.00;33.51
65419;DHT22;52027;50.658;14.004;2022-12-20T08:26:36;21.01;33.54
65419;DHT22;52027;50.658;14.004;2022-12-20T08:29:02;21.03;33.44
65419;DHT22;52027;50.658;14.004;2022-12-20T08:31:27;21.03;33.37
65419;DHT22;52027;50.658;14.004;2022-12-20T08:33:53;21.03;33.47
65419;DHT22;52027;50.658;14.004;2022-12-20T08:36:19;21.03;33.54
65419;DHT22;52027;50.658;14.004;2022-12-20T08:38:44;21.01;33.54
65419;DHT22;52027;50.658;14.004;2022-12-20T08:41:11;21.00;33.67
65419;DHT22;52027;50.658;14.004;2022-12-20T08:43:38;21.01;33.70
65419;DHT22;52027;50.658;14.004;2022-12-20T08:46:04;21.00;33.72
65419;DHT22;52027;50.658;14.004;2022-12-20T08:48:31;21.03;33.80
65419;DHT22;52027;50.658;14.004;2022-12-20T08:50:58;21.00;33.76
65419;DHT22;52027;50.658;14.004;2022-12-20T08:53:25;21.03;33.77
65419;DHT22;52027;50.658;14.004;2022-12-20T08:55:51;21.04;33.86
65419;DHT22;52027;50.658;14.004;2022-12-20T08:58:16;21.04;33.83
65419;DHT22;52027;50.658;14.004;2022-12-20T09:00:42;21.04;33.86
65419;DHT22;52027;50.658;14.004;2022-12-20T09:03:07;21.03;33.74
65419;DHT22;52027;50.658;14.004;2022-12-20T09:05:34;21.06;33.87
65419;DHT22;52027;50.658;14.004;2022-12-20T09:07:59;21.07;33.90
65419;DHT22;52027;50.658;14.004;2022-12-20T09:10:24;21.07;33.91
65419;DHT22;52027;50.658;14.004;2022-12-20T09:12:50;21.06;33.77
65419;DHT22;52027;50.658;14.004;2022-12-20T09:15:16;21.08;33.82
65419;DHT22;52027;50.658;14.004;2022-12-20T09:17:42;21.10;33.86
65419;DHT22;52027;50.658;14.004;2022-12-20T09:20:08;21.11;33.92
65419;DHT22;52027;50.658;14.004;2022-12-20T09:22:33;21.12;33.99
65419;DHT22;52027;50.658;14.004;2022-12-20T09:24:59;21.17;34.02
65419;DHT22;52027;50.658;14.004;2022-12-20T09:27:24;21.17;33.99
65419;DHT22;52027;50.658;14.004;2022-12-20T09:29:49;21.17;33.89
65419;DHT22;52027;50.658;14.004;2022-12-20T09:32:14;21.20;33.89
65419;DHT22;52027;50.658;14.004;2022-12-20T09:34:40;21.21;33.83
65419;DHT22;52027;50.658;14.004;2022-12-20T09:37:06;21.21;33.80
65419;DHT22;52027;50.658;14.004;2022-12-20T09:39:31;21.21;33.95
65419;DHT22;52027;50.658;14.004;2022-12-20T09:41:57;21.24;33.86
65419;DHT22;52027;50.658;14.004;2022-12-20T09:44:31;21.24;33.89
65419;DHT22;52027;50.658;14.004;2022-12-20T09:47:05;21.25;33.91
65419;DHT22;52027;50.658;14.004;2022-12-20T09:49:34;21.24;33.94
65419;DHT22;52027;50.658;14.004;2022-12-20T09:55:40;21.27;33.91
65419;DHT22;52027;50.658;14.004;2022-12-20T10:00:39;21.30;33.81
65419;DHT22;52027;50.658;14.004;2022-12-20T10:03:05;21.30;33.94
65419;DHT22;52027;50.658;14.004;2022-12-20T10:19:12;21.30;33.90
65419;DHT22;52027;50.658;14.004;2022-12-20T10:22:04;21.31;33.94
65419;DHT22;52027;50.658;14.004;2022-12-20T10:24:34;21.34;33.98
65419;DHT22;52027;50.658;14.004;2022-12-20T10:27:19;21.34;33.99
65419;DHT22;52027;50.658;14.004;2022-12-20T10:29:46;21.31;34.04
65419;DHT22;52027;50.658;14.004;2022-12-20T10:32:17;21.32;34.18
65419;DHT22;52027;50.658;14.004;2022-12-20T10:37:34;21.32;34.10
65419;DHT22;52027;50.658;14.004;2022-12-20T10:40:00;21.32;34.19
65419;DHT22;52027;50.658;14.004;2022-12-20T10:42:39;21.31;34.25
65419;DHT22;52027;50.658;14.004;2022-12-20T10:45:32;21.32;34.16
65419;DHT22;52027;50.658;14.004;2022-12-20T10:48:01;21.32;34.18
65419;DHT22;52027;50.658;14.004;2022-12-20T10:50:26;21.32;34.12
65419;DHT22;52027;50.658;14.004;2022-12-20T10:55:40;21.34;34.19
65419;DHT22;52027;50.658;14.004;2022-12-20T10:58:14;21.32;34.22
65419;DHT22;52027;50.658;14.004;2022-12-20T11:00:40;21.34;34.19
65419;DHT22;52027;50.658;14.004;2022-12-20T11:03:18;21.32;34.13
65419;DHT22;52027;50.658;14.004;2022-12-20T11:05:55;21.34;34.16
65419;DHT22;52027;50.658;14.004;2022-12-20T11:08:22;21.32;34.13
65419;DHT22;52027;50.658;14.004;2022-12-20T11:10:49;21.28;34.18
65419;DHT22;52027;50.658;14.004;2022-12-20T11:13:25;21.30;34.31
65419;DHT22;52027;50.658;14.004;2022-12-20T11:15:52;21.32;34.33
65419;DHT22;52027;50.658;14.004;2022-12-20T11:18:27;21.34;34.32
65419;DHT22;52027;50.658;14.004;2022-12-20T11:23:40;21.32;34.42
65419;DHT22;52027;50.658;14.004;2022-12-20T11:29:22;21.34;34.32
65419;DHT22;52027;50.658;14.004;2022-12-20T11:35:10;21.34;34.18
65419;DHT22;52027;50.658;14.004;2022-12-20T11:51:48;21.38;34.18
65419;DHT22;52027;50.658;14.004;2022-12-20T11:54:36;21.35;34.18
65419;DHT22;52027;50.658;14.004;2022-12-20T11:57:20;21.35;34.35
65419;DHT22;52027;50.658;14.004;2022-12-20T11:59:56;21.37;34.40
65419;DHT22;52027;50.658;14.004;2022-12-20T12:02:42;21.35;34.28
65419;DHT22;52027;50.658;14.004;2022-12-20T12:05:19;21.35;34.41
65419;DHT22;52027;50.658;14.004;2022-12-20T12:07:49;21.37;34.44
65419;DHT22;52027;50.658;14.004;2022-12-20T12:10:16;21.35;34.47
65419;DHT22;52027;50.658;14.004;2022-12-20T12:15:39;21.37;34.56
65419;DHT22;52027;50.658;14.004;2022-12-20T12:18:13;21.38;34.62
65419;DHT22;52027;50.658;14.004;2022-12-20T12:23:21;21.41;34.65
65419;DHT22;52027;50.658;14.004;2022-12-20T12:25:48;21.41;34.65
65419;DHT22;52027;50.658;14.004;2022-12-20T12:28:15;21.41;34.66
65419;DHT22;52027;50.658;14.004;2022-12-20T12:30:47;21.44;34.65
65419;DHT22;52027;50.658;14.004;2022-12-20T12:33:21;21.42;34.62
65419;DHT22;52027;50.658;14.004;2022-12-20T12:43:47;21.41;34.41
65419;DHT22;52027;50.658;14.004;2022-12-20T12:46:27;21.42;34.36
65419;DHT22;52027;50.658;14.004;2022-12-20T12:49:03;21.39;34.27
65419;DHT22;52027;50.658;14.004;2022-12-20T12:51:36;21.37;34.34
65419;DHT22;52027;50.658;14.004;2022-12-20T12:56:38;21.39;34.43
65419;DHT22;52027;50.658;14.004;2022-12-20T13:11:50;21.39;34.40
65419;DHT22;52027;50.658;14.004;2022-12-20T13:19:28;21.39;34.53
65419;DHT22;52027;50.658;14.004;2022-12-20T13:27:37;21.38;34.47
65419;DHT22;52027;50.658;14.004;2022-12-20T13:38:08;21.38;34.65
65419;DHT22;52027;50.658;14.004;2022-12-20T13:40:55;21.37;34.57
65419;DHT22;52027;50.658;14.004;2022-12-20T13:48:48;21.35;34.59
65419;DHT22;52027;50.658;14.004;2022-12-20T13:51:23;21.37;34.57
65419;DHT22;52027;50.658;14.004;2022-12-20T13:53:58;21.35;34.60
65419;DHT22;52027;50.658;14.004;2022-12-20T13:58:54;21.35;34.66
65419;DHT22;52027;50.658;14.004;2022-12-20T14:01:21;21.34;34.59
65419;DHT22;52027;50.658;14.004;2022-12-20T14:03:48;21.35;34.60
65419;DHT22;52027;50.658;14.004;2022-12-20T14:06:14;21.37;34.55
65419;DHT22;52027;50.658;14.004;2022-12-20T14:08:44;21.34;34.57
65419;DHT22;52027;50.658;14.004;2022-12-20T14:13:37;21.31;34.48
65419;DHT22;52027;50.658;14.004;2022-12-20T14:16:16;21.30;34.62
65419;DHT22;52027;50.658;14.004;2022-12-20T14:18:47;21.31;34.71
65419;DHT22;52027;50.658;14.004;2022-12-20T14:21:13;21.30;34.77
65419;DHT22;52027;50.658;14.004;2022-12-20T14:23:39;21.30;34.77
65419;DHT22;52027;50.658;14.004;2022-12-20T14:26:10;21.31;34.71
65419;DHT22;52027;50.658;14.004;2022-12-20T14:36:27;21.27;34.69
65419;DHT22;52027;50.658;14.004;2022-12-20T14:38:54;21.25;34.68
65419;DHT22;52027;50.658;14.004;2022-12-20T14:41:34;21.30;34.59
65419;DHT22;52027;50.658;14.004;2022-12-20T14:46:33;21.25;34.49
65419;DHT22;52027;50.658;14.004;2022-12-20T14:51:40;21.24;34.59
65419;DHT22;52027;50.658;14.004;2022-12-20T14:54:05;21.23;34.52
65419;DHT22;52027;50.658;14.004;2022-12-20T14:56:31;21.24;34.44
65419;DHT22;52027;50.658;14.004;2022-12-20T14:59:12;21.18;34.38
65419;DHT22;52027;50.658;14.004;2022-12-20T15:01:37;21.17;34.37
65419;DHT22;52027;50.658;14.004;2022-12-20T15:06:45;21.15;34.29
65419;DHT22;52027;50.658;14.004;2022-12-20T15:09:12;21.15;34.27
65419;DHT22;52027;50.658;14.004;2022-12-20T15:11:41;21.12;34.19
65419;DHT22;52027;50.658;14.004;2022-12-20T15:14:35;21.11;34.23
65419;DHT22;52027;50.658;14.004;2022-12-20T15:17:12;21.11;34.21
65419;DHT22;52027;50.658;14.004;2022-12-20T15:19:42;21.10;34.17
65419;DHT22;52027;50.658;14.004;2022-12-20T15:22:16;21.08;34.22
65419;DHT22;52027;50.658;14.004;2022-12-20T15:24:42;21.07;34.19
65419;DHT22;52027;50.658;14.004;2022-12-20T15:27:14;21.01;34.16
65419;DHT22;52027;50.658;14.004;2022-12-20T15:29:40;21.06;34.14
65419;DHT22;52027;50.658;14.004;2022-12-20T15:32:25;21.04;34.12
65419;DHT22;52027;50.658;14.004;2022-12-20T15:34:54;21.00;34.12
65419;DHT22;52027;50.658;14.004;2022-12-20T15:37:20;21.00;34.06
65419;DHT22;52027;50.658;14.004;2022-12-20T15:39:45;20.97;34.06
65419;DHT22;52027;50.658;14.004;2022-12-20T15:42:18;20.97;34.03
65419;DHT22;52027;50.658;14.004;2022-12-20T15:44:45;20.94;34.07
65419;DHT22;52027;50.658;14.004;2022-12-20T15:47:14;20.94;33.99
65419;DHT22;52027;50.658;14.004;2022-12-20T15:49:40;20.93;34.03
65419;DHT22;52027;50.658;14.004;2022-12-20T15:52:05;20.93;33.95
65419;DHT22;52027;50.658;14.004;2022-12-20T15:54:33;20.90;33.92
65419;DHT22;52027;50.658;14.004;2022-12-20T15:57:05;20.90;33.95
65419;DHT22;52027;50.658;14.004;2022-12-20T15:59:32;20.90;33.88
65419;DHT22;52027;50.658;14.004;2022-12-20T16:01:57;20.87;33.90
65419;DHT22;52027;50.658;14.004;2022-12-20T16:04:23;20.87;33.87
65419;DHT22;52027;50.658;14.004;2022-12-20T16:06:49;20.87;33.87
65419;DHT22;52027;50.658;14.004;2022-12-20T16:09:15;20.86;33.87
65419;DHT22;52027;50.658;14.004;2022-12-20T16:11:41;20.84;33.80
65419;DHT22;52027;50.658;14.004;2022-12-20T16:14:15;20.84;33.84
65419;DHT22;52027;50.658;14.004;2022-12-20T16:16:41;20.84;33.80
65419;DHT22;52027;50.658;14.004;2022-12-20T16:19:08;20.81;33.78
65419;DHT22;52027;50.658;14.004;2022-12-20T16:21:36;20.83;33.77
65419;DHT22;52027;50.658;14.004;2022-12-20T16:24:04;20.80;33.82
65419;DHT22;52027;50.658;14.004;2022-12-20T16:26:29;20.80;33.78
65419;DHT22;52027;50.658;14.004;2022-12-20T16:28:55;20.79;33.75
65419;DHT22;52027;50.658;14.004;2022-12-20T16:33:52;20.77;33.75
65419;DHT22;52027;50.658;14.004;2022-12-20T16:36:17;20.76;33.72
65419;DHT22;52027;50.658;14.004;2022-12-20T16:38:43;20.76;33.69
65419;DHT22;52027;50.658;14.004;2022-12-20T16:41:16;20.75;33.69
65419;DHT22;52027;50.658;14.004;2022-12-20T16:43:42;20.75;33.69
65419;DHT22;52027;50.658;14.004;2022-12-20T16:46:15;20.73;33.69
65419;DHT22;52027;50.658;14.004;2022-12-20T16:48:42;20.73;33.70
65419;DHT22;52027;50.658;14.004;2022-12-20T16:51:29;20.72;33.70
65419;DHT22;52027;50.658;14.004;2022-12-20T16:54:02;20.70;33.66
65419;DHT22;52027;50.658;14.004;2022-12-20T16:56:28;20.69;33.69
65419;DHT22;52027;50.658;14.004;2022-12-20T16:58:53;20.70;33.65
65419;DHT22;52027;50.658;14.004;2022-12-20T17:01:22;20.67;33.68
65419;DHT22;52027;50.658;14.004;2022-12-20T17:03:49;20.69;33.62
65419;DHT22;52027;50.658;14.004;2022-12-20T17:06:15;20.67;33.67
65419;DHT22;52027;50.658;14.004;2022-12-20T17:08:42;20.66;33.62
65419;DHT22;52027;50.658;14.004;2022-12-20T17:11:15;20.66;33.62
65419;DHT22;52027;50.658;14.004;2022-12-20T17:13:42;20.67;33.56
65419;DHT22;52027;50.658;14.004;2022-12-20T17:16:12;20.65;33.61
65419;DHT22;52027;50.658;14.004;2022-12-20T17:18:42;20.65;33.58
65419;DHT22;52027;50.658;14.004;2022-12-20T17:23:42;20.63;33.54
65419;DHT22;52027;50.658;14.004;2022-12-20T17:26:21;20.63;33.53
65419;DHT22;52027;50.658;14.004;2022-12-20T17:28:48;20.65;33.53
65419;DHT22;52027;50.658;14.004;2022-12-20T17:31:29;20.62;33.50
65419;DHT22;52027;50.658;14.004;2022-12-20T17:33:56;20.62;33.55
65419;DHT22;52027;50.658;14.004;2022-12-20T17:36:22;20.63;33.45
65419;DHT22;52027;50.658;14.004;2022-12-20T17:38:48;20.59;33.52
65419;DHT22;52027;50.658;14.004;2022-12-20T17:43:50;20.57;33.50